createdAt,value
2023-05-16T07:03:45.412Z,14.50
2023-05-16T07:12:21.375Z,16.38
2023-05-16T07:18:52.589Z,18.23
2023-05-16T07:26:09.952Z,18.13
2023-05-16T07:28:37.413Z,18.70
2023-05-16T07:34:45.105Z,19.95
2023-05-16T07:42:03.071Z,21.52
2023-05-16T07:44:31.475Z,22.05
2023-05-16T07:46:59.200Z,21.75
2023-05-16T07:53:30.506Z,21.17
2023-05-16T07:55:58.033Z,20.60
2023-05-16T07:58:25.552Z,20.95
2023-05-16T08:00:53.007Z,21.58
2023-05-16T08:10:13.615Z,20.80
2023-05-16T08:20:56.033Z,16.75
2023-05-16T08:30:09.921Z,17.63
2023-05-16T08:39:10.801Z,17.77
2023-05-16T08:47:39.437Z,19.33
2023-05-16T08:55:23.151Z,18.95
2023-05-16T09:05:03.322Z,19.00
2023-05-16T09:12:35.614Z,20.17
2023-05-16T09:15:07.292Z,18.55
2023-05-16T09:17:46.796Z,18.42
2023-05-16T09:23:11.765Z,16.95
2023-05-16T09:25:41.745Z,18.73
2023-05-16T09:28:12.495Z,18.60
2023-05-16T09:30:39.952Z,17.38
2023-05-16T09:33:08.331Z,17.23
2023-05-16T09:35:44.919Z,17.02
2023-05-16T09:38:18.099Z,18.48
2023-05-16T09:40:46.748Z,16.55
2023-05-16T09:43:17.860Z,17.75
2023-05-16T09:45:49.857Z,17.20
2023-05-16T09:48:18.465Z,17.58
2023-05-16T09:50:54.658Z,16.38
2023-05-16T09:53:35.089Z,16.67
2023-05-16T09:56:15.017Z,16.60
2023-05-16T09:58:45.381Z,17.55
2023-05-16T10:01:13.639Z,17.27
2023-05-16T10:03:43.907Z,18.80
2023-05-16T10:06:12.740Z,19.10
2023-05-16T10:08:44.342Z,19.20
2023-05-16T10:11:12.436Z,19.33
2023-05-16T10:13:43.127Z,19.15
2023-05-16T10:16:14.206Z,18.63
2023-05-16T10:18:42.831Z,18.80
2023-05-16T10:21:19.318Z,18.83
2023-05-16T10:23:51.829Z,20.30
2023-05-16T10:26:22.029Z,19.67
2023-05-16T10:28:50.857Z,19.20
2023-05-16T10:31:18.625Z,17.98
2023-05-16T10:33:47.526Z,18.58
2023-05-16T10:36:16.811Z,17.83
2023-05-16T10:38:46.736Z,18.60
2023-05-16T10:41:14.453Z,19.33
2023-05-16T10:43:56.108Z,17.75
2023-05-16T10:46:25.314Z,18.38
2023-05-16T10:48:54.746Z,19.60
2023-05-16T10:51:23.204Z,17.63
2023-05-16T10:53:55.200Z,18.58
2023-05-16T10:56:28.781Z,18.80
2023-05-16T10:58:57.067Z,18.85
2023-05-16T11:01:35.858Z,16.38
2023-05-16T11:04:11.464Z,18.13
2023-05-16T11:06:52.493Z,16.48
2023-05-16T11:09:25.622Z,17.17
2023-05-16T11:11:55.788Z,17.70
2023-05-16T11:14:34.728Z,18.17
2023-05-16T11:17:22.910Z,17.27
2023-05-16T11:19:59.944Z,16.50
2023-05-16T11:22:30.476Z,15.52
2023-05-16T11:25:11.030Z,16.15
2023-05-16T11:30:19.627Z,12.57
2023-05-16T11:32:49.249Z,13.15
2023-05-16T11:35:18.999Z,13.47
2023-05-16T11:37:48.226Z,13.63
2023-05-16T11:40:17.355Z,12.18
2023-05-16T11:42:48.149Z,9.75
2023-05-16T11:45:24.732Z,10.27
2023-05-16T11:47:52.877Z,8.68
2023-05-16T11:50:26.609Z,7.80
2023-05-16T11:52:57.263Z,9.38
2023-05-16T11:55:41.488Z,7.88
2023-05-16T11:58:10.813Z,8.60
2023-05-16T12:00:47.663Z,7.60
2023-05-16T12:03:15.495Z,7.57
2023-05-16T12:05:56.966Z,7.10
2023-05-16T12:08:25.335Z,6.40
2023-05-16T12:10:53.942Z,8.25
2023-05-16T12:13:25.215Z,6.72
2023-05-16T12:15:53.202Z,6.82
2023-05-16T12:18:24.229Z,7.22
2023-05-16T12:20:52.543Z,7.28
2023-05-16T12:23:20.055Z,7.47
2023-05-16T12:25:49.546Z,7.15
2023-05-16T12:28:17.419Z,7.03
2023-05-16T12:30:48.179Z,7.18
2023-05-16T12:33:17.531Z,7.32
2023-05-16T12:35:47.389Z,7.18
2023-05-16T12:38:17.817Z,7.35
2023-05-16T12:40:46.282Z,6.30
2023-05-16T12:43:21.730Z,6.15
2023-05-16T12:45:58.535Z,6.75
2023-05-16T12:48:35.838Z,6.68
2023-05-16T12:51:18.816Z,6.40
2023-05-16T13:04:52.859Z,5.97
2023-05-16T13:07:20.288Z,6.40
2023-05-16T13:27:55.798Z,5.00
2023-05-16T13:43:05.762Z,4.70
2023-05-16T13:45:33.728Z,5.30
2023-05-16T13:52:01.743Z,5.90
2023-05-16T13:54:29.208Z,5.25
2023-05-16T13:56:57.698Z,5.70
2023-05-16T13:59:44.896Z,6.00
2023-05-16T14:02:13.354Z,5.25
2023-05-16T14:04:41.139Z,5.47
2023-05-16T14:07:08.606Z,4.88
2023-05-16T14:09:39.333Z,4.90
2023-05-16T14:12:10.276Z,5.03
2023-05-16T14:14:38.629Z,3.90
2023-05-16T14:17:06.875Z,4.10
2023-05-16T14:19:34.698Z,3.63
2023-05-16T14:22:02.879Z,3.45
2023-05-16T14:24:30.335Z,3.70
2023-05-16T14:33:37.070Z,2.95
2023-05-16T14:36:08.408Z,3.67
2023-05-16T14:38:36.368Z,2.58
2023-05-16T14:48:51.250Z,2.78
2023-05-16T14:51:18.757Z,2.47
2023-05-16T15:01:54.039Z,3.00
2023-05-16T15:13:46.917Z,3.45
2023-05-16T15:27:24.549Z,2.95
2023-05-16T17:06:23.473Z,3.88
2023-05-16T17:30:51.141Z,4.40
2023-05-16T17:54:24.146Z,3.00
2023-05-16T18:15:51.251Z,2.50
2023-05-16T18:28:59.248Z,2.70
